createdAt,value
2023-02-21T00:01:20.363Z,2.60
2023-02-21T00:04:41.891Z,2.53
2023-02-21T00:08:03.547Z,2.50
2023-02-21T00:11:25.249Z,2.55
2023-02-21T00:14:46.774Z,2.58
2023-02-21T00:18:08.266Z,2.62
2023-02-21T00:21:29.474Z,2.82
2023-02-21T00:24:50.852Z,2.69
2023-02-21T00:28:12.110Z,2.66
2023-02-21T00:31:37.387Z,2.58
2023-02-21T00:34:58.909Z,2.67
2023-02-21T00:38:20.430Z,2.59
2023-02-21T00:41:42.027Z,2.69
2023-02-21T00:45:03.858Z,2.89
2023-02-21T00:48:25.484Z,2.78
2023-02-21T00:51:47.494Z,2.66
2023-02-21T00:55:09.259Z,2.78
2023-02-21T00:58:31.354Z,2.67
2023-02-21T01:01:52.736Z,2.72
2023-02-21T01:05:14.184Z,2.86
2023-02-21T01:08:35.539Z,2.71
2023-02-21T01:11:57.196Z,2.69
2023-02-21T01:15:18.839Z,2.57
2023-02-21T01:18:42.031Z,2.64
2023-02-21T01:22:03.881Z,2.39
2023-02-21T01:25:26.013Z,2.26
2023-02-21T01:28:48.373Z,2.24
2023-02-21T01:32:10.279Z,2.23
2023-02-21T01:35:33.860Z,2.40
2023-02-21T01:38:55.787Z,2.38
2023-02-21T01:42:17.359Z,2.24
2023-02-21T01:45:39.825Z,2.17
2023-02-21T01:49:01.254Z,2.17
2023-02-21T01:52:24.104Z,2.04
2023-02-21T01:55:45.499Z,1.97
2023-02-21T01:59:11.009Z,1.82
2023-02-21T02:02:46.971Z,1.77
2023-02-21T02:06:14.712Z,1.64
2023-02-21T02:09:37.560Z,1.53
2023-02-21T02:12:55.472Z,1.46
2023-02-21T02:16:07.481Z,1.44
2023-02-21T02:19:25.484Z,1.51
2023-02-21T02:23:03.209Z,1.58
2023-02-21T02:26:24.519Z,1.71
2023-02-21T02:29:55.772Z,1.81
2023-02-21T02:33:08.180Z,1.87
2023-02-21T02:36:16.469Z,1.88
2023-02-21T02:40:05.052Z,1.90
2023-02-21T02:43:14.931Z,1.93
2023-02-21T02:46:29.191Z,2.18
2023-02-21T02:49:34.134Z,2.31
2023-02-21T02:52:38.842Z,2.56
2023-02-21T02:55:50.916Z,2.97
2023-02-21T02:59:21.602Z,2.98
2023-02-21T03:02:52.753Z,3.35
2023-02-21T03:06:39.006Z,3.40
2023-02-21T03:10:00.851Z,3.38
2023-02-21T03:13:15.636Z,3.26
2023-02-21T03:16:27.633Z,3.02
2023-02-21T03:19:38.112Z,2.85
2023-02-21T03:22:44.693Z,2.66
2023-02-21T03:25:50.504Z,2.53
2023-02-21T03:28:55.322Z,2.37
2023-02-21T03:32:12.475Z,2.26
2023-02-21T03:35:16.021Z,2.09
2023-02-21T03:38:19.337Z,2.03
2023-02-21T03:41:22.254Z,1.85
2023-02-21T03:44:25.450Z,1.67
2023-02-21T03:47:28.246Z,1.56
2023-02-21T03:50:34.426Z,1.76
2023-02-21T03:53:37.808Z,1.79
2023-02-21T03:56:42.493Z,1.82
2023-02-21T03:59:46.608Z,1.79
2023-02-21T04:02:49.851Z,1.74
2023-02-21T04:05:55.087Z,1.68
2023-02-21T04:08:58.079Z,1.71
2023-02-21T04:12:01.461Z,1.94
2023-02-21T04:15:06.012Z,2.01
2023-02-21T04:18:10.620Z,2.04
2023-02-21T04:21:18.069Z,2.03
2023-02-21T04:24:21.124Z,2.13
2023-02-21T04:27:24.273Z,1.98
2023-02-21T04:30:27.732Z,1.93
2023-02-21T04:33:30.843Z,2.00
2023-02-21T04:36:34.188Z,1.87
2023-02-21T04:39:36.880Z,1.59
2023-02-21T04:42:40.308Z,1.46
2023-02-21T04:45:43.348Z,1.40
2023-02-21T04:48:49.125Z,1.21
2023-02-21T04:51:52.016Z,1.19
2023-02-21T04:54:55.369Z,1.23
2023-02-21T04:57:58.091Z,1.13
2023-02-21T05:01:01.156Z,1.07
2023-02-21T05:04:04.637Z,1.12
2023-02-21T05:07:07.715Z,1.00
2023-02-21T05:10:11.302Z,1.08
2023-02-21T05:13:15.307Z,1.26
2023-02-21T05:16:18.334Z,1.17
2023-02-21T05:19:30.123Z,0.90
2023-02-21T05:22:32.941Z,1.09
2023-02-21T05:25:36.022Z,1.05
2023-02-21T05:28:40.602Z,1.01
2023-02-21T05:31:43.559Z,0.98
2023-02-21T05:34:47.819Z,0.96
2023-02-21T05:37:50.997Z,0.99
2023-02-21T05:40:54.324Z,1.06
2023-02-21T05:43:57.502Z,1.07
2023-02-21T05:47:00.265Z,1.13
2023-02-21T05:50:05.481Z,0.98
2023-02-21T05:53:10.351Z,0.98
2023-02-21T05:56:13.737Z,1.13
2023-02-21T05:59:19.572Z,1.25
2023-02-21T06:02:22.797Z,1.12
2023-02-21T06:05:25.959Z,1.41
2023-02-21T06:08:28.653Z,1.60
2023-02-21T06:11:33.940Z,1.69
2023-02-21T06:14:36.728Z,2.09
2023-02-21T06:17:41.143Z,2.93
2023-02-21T06:20:45.539Z,2.92
2023-02-21T06:23:49.494Z,2.70
2023-02-21T06:26:52.222Z,6.05
2023-02-21T06:29:55.266Z,8.91
2023-02-21T06:32:58.448Z,10.84
2023-02-21T06:36:12.026Z,12.03
2023-02-21T06:39:15.216Z,13.29
2023-02-21T06:42:18.982Z,14.82
2023-02-21T06:45:21.694Z,15.47
2023-02-21T06:48:24.822Z,16.03
2023-02-21T06:51:29.809Z,16.99
2023-02-21T06:54:33.068Z,17.98
2023-02-21T06:57:35.768Z,19.16
2023-02-21T07:00:40.061Z,19.87
2023-02-21T07:03:44.378Z,20.40
2023-02-21T07:06:47.468Z,20.81
2023-02-21T07:09:50.496Z,21.71
2023-02-21T07:12:53.623Z,22.38
2023-02-21T07:15:56.424Z,22.59
2023-02-21T07:18:59.493Z,22.62
2023-02-21T07:22:02.219Z,22.34
2023-02-21T07:25:05.765Z,21.61
2023-02-21T07:28:08.496Z,22.86
2023-02-21T07:31:11.569Z,22.33
2023-02-21T07:34:15.268Z,22.94
2023-02-21T07:37:18.218Z,23.64
2023-02-21T07:40:20.981Z,24.90
2023-02-21T07:43:25.633Z,25.36
2023-02-21T07:46:29.109Z,24.03
2023-02-21T07:49:32.270Z,23.54
2023-02-21T07:52:34.951Z,23.22
2023-02-21T07:55:38.160Z,22.54
2023-02-21T07:58:40.831Z,23.09
2023-02-21T08:01:43.803Z,20.87
2023-02-21T08:04:51.585Z,20.88
2023-02-21T08:07:56.090Z,21.98
2023-02-21T08:10:59.327Z,22.20
2023-02-21T08:14:02.055Z,25.15
2023-02-21T08:17:05.029Z,25.26
2023-02-21T08:20:08.366Z,24.17
2023-02-21T08:23:11.735Z,26.42
2023-02-21T08:26:14.421Z,26.67
2023-02-21T08:29:18.189Z,27.54
2023-02-21T08:32:20.999Z,27.88
2023-02-21T08:35:24.044Z,26.75
2023-02-21T08:38:26.713Z,27.85
2023-02-21T08:41:44.172Z,28.39
2023-02-21T08:44:47.628Z,27.68
2023-02-21T08:47:51.577Z,26.67
2023-02-21T08:50:54.565Z,22.47
2023-02-21T08:53:57.511Z,15.78
2023-02-21T08:57:01.013Z,14.25
2023-02-21T09:00:11.481Z,13.37
2023-02-21T09:03:14.683Z,13.28
2023-02-21T09:06:18.084Z,13.53
2023-02-21T09:09:20.868Z,13.47
2023-02-21T09:12:24.082Z,13.73
2023-02-21T09:15:26.776Z,13.96
2023-02-21T09:18:31.435Z,13.89
2023-02-21T09:21:34.602Z,13.92
2023-02-21T09:24:38.258Z,14.03
2023-02-21T09:27:41.402Z,13.73
2023-02-21T09:30:44.986Z,14.14
2023-02-21T09:33:47.807Z,14.00
2023-02-21T09:36:55.086Z,13.87
2023-02-21T09:39:58.179Z,14.18
2023-02-21T09:43:03.210Z,14.36
2023-02-21T09:46:14.657Z,14.53
2023-02-21T09:49:25.465Z,14.70
2023-02-21T09:52:34.459Z,15.03
2023-02-21T09:55:40.294Z,15.06
2023-02-21T09:58:44.179Z,15.08
2023-02-21T10:02:14.048Z,14.42
2023-02-21T10:05:44.000Z,14.01
2023-02-21T10:09:04.795Z,14.33
2023-02-21T10:12:20.905Z,13.93
2023-02-21T10:15:51.400Z,14.90
2023-02-21T10:19:36.061Z,14.95
2023-02-21T10:22:43.669Z,15.49
2023-02-21T10:25:47.014Z,16.01
2023-02-21T10:28:50.662Z,16.21
2023-02-21T10:32:00.903Z,16.23
2023-02-21T10:35:04.655Z,16.16
2023-02-21T10:38:14.292Z,16.37
2023-02-21T10:41:18.003Z,16.55
2023-02-21T10:44:30.523Z,16.75
2023-02-21T10:48:01.423Z,16.90
2023-02-21T10:51:10.697Z,17.02
2023-02-21T10:54:21.981Z,16.98
2023-02-21T10:57:25.385Z,17.01
2023-02-21T11:00:47.897Z,16.97
2023-02-21T11:03:56.715Z,16.71
2023-02-21T11:07:05.408Z,16.89
2023-02-21T11:10:30.045Z,16.78
2023-02-21T11:13:34.274Z,16.79
2023-02-21T11:16:37.252Z,16.76
2023-02-21T11:19:48.554Z,16.63
2023-02-21T11:22:53.299Z,16.84
2023-02-21T11:26:07.790Z,16.85
2023-02-21T11:29:16.841Z,17.00
2023-02-21T11:32:27.639Z,17.17
2023-02-21T11:35:43.381Z,17.19
2023-02-21T11:39:00.948Z,17.13
2023-02-21T11:42:23.117Z,17.11
2023-02-21T11:45:30.812Z,17.19
2023-02-21T11:48:42.626Z,17.07
2023-02-21T11:51:54.279Z,16.75
2023-02-21T11:54:57.338Z,16.53
2023-02-21T11:58:18.903Z,16.62
2023-02-21T12:01:32.981Z,16.52
2023-02-21T12:05:03.607Z,16.62
2023-02-21T12:08:18.367Z,16.74
2023-02-21T12:11:40.000Z,16.69
2023-02-21T12:15:05.779Z,16.64
2023-02-21T12:18:23.143Z,16.45
2023-02-21T12:22:03.377Z,16.50
2023-02-21T12:25:52.918Z,16.70
2023-02-21T12:29:07.763Z,16.45
2023-02-21T12:32:43.675Z,16.59
2023-02-21T12:36:12.364Z,16.69
2023-02-21T12:39:57.001Z,16.63
2023-02-21T12:43:16.124Z,16.71
2023-02-21T12:46:33.815Z,16.72
2023-02-21T12:49:42.226Z,16.71
2023-02-21T12:52:47.792Z,16.80
2023-02-21T12:56:09.369Z,16.94
2023-02-21T12:59:37.522Z,16.80
2023-02-21T13:03:10.396Z,16.76
2023-02-21T13:06:34.371Z,16.66
2023-02-21T13:09:43.364Z,16.76
2023-02-21T13:12:59.476Z,16.73
2023-02-21T13:16:05.998Z,16.89
2023-02-21T13:19:12.311Z,16.91
2023-02-21T13:22:52.397Z,16.97
2023-02-21T13:26:31.561Z,16.94
2023-02-21T13:29:39.169Z,16.77
2023-02-21T13:33:00.610Z,16.75
2023-02-21T13:36:35.021Z,16.82
2023-02-21T13:39:38.454Z,16.74
2023-02-21T13:42:41.934Z,16.61
2023-02-21T13:45:45.758Z,16.72
2023-02-21T13:49:27.240Z,16.74
2023-02-21T13:52:32.899Z,16.87
2023-02-21T13:55:36.856Z,16.87
2023-02-21T13:58:47.953Z,16.73
2023-02-21T14:01:51.250Z,16.75
2023-02-21T14:04:57.186Z,16.58
2023-02-21T14:08:06.415Z,16.60
2023-02-21T14:11:15.592Z,16.54
2023-02-21T14:14:22.062Z,16.43
2023-02-21T14:17:28.834Z,16.38
2023-02-21T14:20:32.297Z,16.38
2023-02-21T14:23:42.533Z,16.30
2023-02-21T14:26:45.202Z,16.24
2023-02-21T14:30:13.165Z,16.26
2023-02-21T14:33:25.464Z,16.03
2023-02-21T14:36:30.463Z,15.92
2023-02-21T14:39:36.818Z,15.96
2023-02-21T14:42:46.018Z,15.89
2023-02-21T14:46:16.539Z,15.80
2023-02-21T14:49:28.807Z,15.70
2023-02-21T14:52:49.305Z,15.56
2023-02-21T14:56:41.870Z,15.40
2023-02-21T14:59:46.973Z,15.31
2023-02-21T15:03:28.743Z,15.23
2023-02-21T15:06:33.251Z,15.08
2023-02-21T15:09:38.617Z,15.04
2023-02-21T15:12:46.018Z,14.87
2023-02-21T15:16:00.109Z,14.90
2023-02-21T15:19:03.309Z,14.81
2023-02-21T15:22:27.171Z,14.73
2023-02-21T15:25:29.951Z,14.62
2023-02-21T15:28:33.215Z,14.55
2023-02-21T15:31:40.378Z,14.50
2023-02-21T15:34:47.341Z,14.28
2023-02-21T15:37:50.329Z,14.12
2023-02-21T15:41:00.418Z,13.95
2023-02-21T15:44:14.464Z,13.80
2023-02-21T15:47:23.433Z,13.76
2023-02-21T15:50:37.973Z,13.53
2023-02-21T15:53:41.048Z,13.35
2023-02-21T15:56:44.955Z,13.26
2023-02-21T15:59:49.340Z,13.12
2023-02-21T16:02:52.899Z,12.98
2023-02-21T16:06:14.392Z,12.88
2023-02-21T16:09:27.485Z,12.85
2023-02-21T16:12:43.842Z,12.76
2023-02-21T16:15:46.680Z,12.77
2023-02-21T16:18:56.515Z,12.75
2023-02-21T16:22:22.710Z,12.68
2023-02-21T16:25:26.074Z,12.47
2023-02-21T16:28:30.785Z,12.39
2023-02-21T16:31:36.750Z,12.20
2023-02-21T16:34:39.699Z,12.00
2023-02-21T16:37:43.049Z,11.87
2023-02-21T16:40:47.757Z,11.66
2023-02-21T16:43:51.098Z,11.41
2023-02-21T16:46:55.070Z,11.20
2023-02-21T16:49:58.110Z,11.02
2023-02-21T16:53:02.172Z,10.95
2023-02-21T16:56:06.330Z,10.67
2023-02-21T16:59:14.675Z,10.35
2023-02-21T17:02:17.732Z,9.93
2023-02-21T17:05:21.896Z,9.57
2023-02-21T17:08:27.049Z,9.33
2023-02-21T17:11:29.987Z,8.98
2023-02-21T17:14:34.050Z,8.82
2023-02-21T17:17:37.819Z,8.70
2023-02-21T17:20:42.419Z,8.56
2023-02-21T17:23:45.232Z,8.36
2023-02-21T17:26:48.254Z,8.13
2023-02-21T17:29:51.241Z,7.98
2023-02-21T17:32:54.387Z,7.73
2023-02-21T17:35:57.338Z,7.58
2023-02-21T17:39:00.602Z,7.41
2023-02-21T17:42:04.953Z,7.27
2023-02-21T17:45:09.007Z,7.15
2023-02-21T17:48:12.014Z,7.02
2023-02-21T17:51:20.024Z,6.81
2023-02-21T17:54:25.222Z,6.78
2023-02-21T17:57:30.114Z,6.65
2023-02-21T18:00:35.239Z,6.55
2023-02-21T18:03:38.543Z,6.42
2023-02-21T18:06:42.231Z,6.34
2023-02-21T18:09:47.184Z,6.20
2023-02-21T18:12:51.419Z,6.14
2023-02-21T18:15:54.764Z,5.91
2023-02-21T18:18:57.493Z,5.91
2023-02-21T18:22:05.176Z,5.75
2023-02-21T18:25:08.707Z,5.82
2023-02-21T18:28:11.968Z,5.72
2023-02-21T18:31:19.723Z,5.66
2023-02-21T18:34:23.576Z,5.53
2023-02-21T18:37:26.771Z,5.44
2023-02-21T18:40:44.602Z,5.33
2023-02-21T18:43:47.515Z,5.12
2023-02-21T18:46:54.564Z,5.00
2023-02-21T18:49:57.529Z,4.90
2023-02-21T18:53:02.298Z,4.79
2023-02-21T18:56:10.877Z,4.82
2023-02-21T18:59:14.221Z,4.78
2023-02-21T19:02:18.771Z,4.70
2023-02-21T19:05:24.304Z,4.56
2023-02-21T19:08:27.469Z,4.42
2023-02-21T19:11:31.240Z,4.45
2023-02-21T19:14:35.522Z,4.42
2023-02-21T19:17:38.566Z,4.29
2023-02-21T19:20:49.359Z,4.15
2023-02-21T19:23:53.270Z,4.13
2023-02-21T19:26:56.445Z,4.08
2023-02-21T19:29:59.902Z,3.96
2023-02-21T19:33:05.126Z,4.02
2023-02-21T19:36:09.105Z,3.98
2023-02-21T19:39:12.299Z,3.94
2023-02-21T19:42:15.594Z,3.82
2023-02-21T19:45:19.446Z,3.89
2023-02-21T19:48:22.819Z,3.87
2023-02-21T19:51:28.276Z,3.83
2023-02-21T19:54:32.134Z,3.80
2023-02-21T19:57:37.322Z,3.80
2023-02-21T20:00:43.892Z,3.71
2023-02-21T20:03:50.670Z,3.75
2023-02-21T20:06:53.617Z,3.57
2023-02-21T20:09:57.988Z,3.51
2023-02-21T20:13:03.606Z,3.57
2023-02-21T20:16:06.910Z,3.53
2023-02-21T20:19:11.337Z,3.45
2023-02-21T20:22:14.655Z,3.47
2023-02-21T20:25:17.792Z,3.42
2023-02-21T20:28:20.950Z,3.45
2023-02-21T20:31:28.368Z,3.58
2023-02-21T20:34:31.626Z,3.58
2023-02-21T20:37:35.546Z,3.63
2023-02-21T20:40:39.854Z,3.71
2023-02-21T20:43:42.842Z,3.71
2023-02-21T20:46:46.137Z,3.71
2023-02-21T20:49:50.348Z,3.88
2023-02-21T20:52:54.638Z,3.95
2023-02-21T20:55:57.519Z,3.91
2023-02-21T20:59:01.763Z,3.94
2023-02-21T21:02:05.830Z,3.88
2023-02-21T21:05:13.849Z,3.77
2023-02-21T21:08:17.146Z,3.82
2023-02-21T21:11:21.974Z,3.73
2023-02-21T21:14:25.025Z,3.63
2023-02-21T21:17:28.356Z,3.46
2023-02-21T21:20:34.749Z,3.43
2023-02-21T21:23:38.053Z,3.29
2023-02-21T21:26:51.006Z,3.25
2023-02-21T21:29:54.501Z,3.09
2023-02-21T21:32:57.891Z,3.12
2023-02-21T21:36:01.423Z,3.11
2023-02-21T21:39:04.425Z,3.10
2023-02-21T21:42:11.514Z,3.12
2023-02-21T21:45:20.226Z,3.02
2023-02-21T21:48:24.899Z,3.06
2023-02-21T21:51:28.704Z,3.05
2023-02-21T21:54:36.134Z,2.92
2023-02-21T21:57:39.089Z,2.82
2023-02-21T22:00:46.687Z,2.77
2023-02-21T22:03:51.246Z,2.72
2023-02-21T22:06:55.490Z,2.58
2023-02-21T22:09:58.435Z,2.58
2023-02-21T22:13:02.459Z,2.50
2023-02-21T22:16:05.908Z,2.50
2023-02-21T22:19:09.014Z,2.41
2023-02-21T22:22:13.744Z,2.32
2023-02-21T22:25:21.395Z,2.26
2023-02-21T22:28:24.456Z,2.17
2023-02-21T22:31:27.793Z,2.11
2023-02-21T22:34:30.775Z,2.13
2023-02-21T22:37:33.772Z,2.13
2023-02-21T22:40:37.025Z,2.13
2023-02-21T22:43:39.660Z,2.06
2023-02-21T22:46:45.255Z,2.05
2023-02-21T22:49:48.336Z,2.01
2023-02-21T22:53:01.417Z,2.07
2023-02-21T22:56:08.155Z,2.08
2023-02-21T22:59:12.677Z,2.03
2023-02-21T23:02:16.871Z,2.01
2023-02-21T23:05:21.770Z,1.91
2023-02-21T23:08:24.502Z,2.00
2023-02-21T23:11:31.380Z,1.98
2023-02-21T23:14:35.212Z,2.01
2023-02-21T23:17:38.616Z,1.98
2023-02-21T23:20:44.801Z,1.83
2023-02-21T23:23:47.825Z,1.85
2023-02-21T23:26:52.114Z,1.81
2023-02-21T23:29:55.089Z,1.81
2023-02-21T23:32:58.032Z,1.77
2023-02-21T23:36:01.189Z,1.65
2023-02-21T23:39:09.132Z,1.54
2023-02-21T23:42:12.437Z,1.44
2023-02-21T23:45:20.488Z,1.38
2023-02-21T23:48:23.792Z,1.37
2023-02-21T23:51:26.510Z,1.40
2023-02-21T23:54:29.851Z,1.46
2023-02-21T23:57:32.525Z,1.40
